New Market, Pennsylvania
Current Conditions -  °F | °C
As of 11:56 AM on Thursday 30 Oct 2014 (Local Time) from KCXY Reporting Station
Scattered Clouds Scattered Clouds  
Wind Chill: 55°   Ceiling: Unl
Heat Index: 55°   Visibility: 10mi
Dew Point: 38°   Wind: 9mph
Humidity: 53%   Direction: 340°NNW
Pressure: 30.06"   Gusts: NA
Location:  40.2034°N, 76.87°W
Report Text: KCXY 301556Z 34008KT 10SM SCT070 13/03 A3006 RMK AO2 SLP181 T01280033
Loading
Personal Weather Stations






























Interactive Weather Map
Tropical Storm Tracking
New forecast layout! Learn more

10-Day Weather Forecast

Advertisements
Track Severe Weather on mobile